createdAt,value
2022-12-17T07:09:44.565Z,94522.19
2022-12-17T07:12:04.973Z,94511.78
2022-12-17T07:14:25.547Z,94529.47
2022-12-17T07:16:45.446Z,94559.00
2022-12-17T07:19:05.812Z,94592.63
2022-12-17T07:21:26.168Z,94585.00
2022-12-17T07:23:46.600Z,94577.34
2022-12-17T07:26:06.493Z,94549.38
2022-12-17T07:28:40.763Z,94505.38
2022-12-17T07:31:03.730Z,94516.31
2022-12-17T07:33:25.156Z,94509.44
2022-12-17T07:35:45.112Z,94503.06
2022-12-17T07:38:05.131Z,94507.16
2022-12-17T07:40:26.040Z,94508.00
2022-12-17T07:42:45.969Z,94508.81
2022-12-17T07:45:06.386Z,94502.59
2022-12-17T07:47:43.552Z,94468.97
2022-12-17T07:50:03.779Z,94479.22
2022-12-17T07:52:23.498Z,94435.50
2022-12-17T07:54:43.725Z,94434.13
2022-12-17T07:57:03.776Z,94417.91
2022-12-17T07:59:23.833Z,94394.13
2022-12-17T08:01:43.939Z,94405.88
2022-12-17T08:04:04.481Z,94417.03
2022-12-17T08:06:24.936Z,94404.59
2022-12-17T08:08:45.185Z,94434.47
2022-12-17T08:11:08.183Z,94439.94
2022-12-17T08:13:28.297Z,94431.22
2022-12-17T08:15:48.464Z,94439.59
2022-12-17T08:18:09.106Z,94461.78
2022-12-17T08:20:29.754Z,94470.47
2022-12-17T08:22:49.966Z,94499.84
2022-12-17T08:25:10.374Z,94498.69
2022-12-17T08:27:30.264Z,94481.13
2022-12-17T08:29:50.689Z,94480.94
2022-12-17T08:32:10.682Z,94475.03
2022-12-17T08:34:30.550Z,94466.72
2022-12-17T08:36:50.785Z,94483.25
2022-12-17T08:39:10.847Z,94483.91
2022-12-17T08:41:31.193Z,94469.63
2022-12-17T08:43:51.574Z,94488.63
2022-12-17T08:46:12.202Z,94507.53
2022-12-17T08:48:32.314Z,94541.81
2022-12-17T08:50:52.382Z,94558.00
2022-12-17T08:53:19.380Z,94543.47
2022-12-17T08:55:39.248Z,94559.47
2022-12-17T08:57:59.536Z,94548.34
2022-12-17T09:00:19.856Z,94544.44
2022-12-17T09:02:47.891Z,94535.34
2022-12-17T09:05:07.942Z,94539.34
2022-12-17T09:07:28.029Z,94538.53
2022-12-17T09:09:48.515Z,94539.53
2022-12-17T09:12:08.815Z,94538.09
2022-12-17T09:14:29.295Z,94545.78
2022-12-17T09:16:49.896Z,94560.41
2022-12-17T09:19:10.286Z,94555.69
2022-12-17T09:21:30.628Z,94560.59
2022-12-17T09:23:50.696Z,94555.88
2022-12-17T09:26:12.655Z,94588.09
2022-12-17T09:28:32.621Z,94592.22
2022-12-17T09:30:52.946Z,94613.63
2022-12-17T09:33:13.251Z,94619.50
2022-12-17T09:35:33.670Z,94630.31
2022-12-17T09:37:54.152Z,94640.28
2022-12-17T09:40:13.989Z,94638.63
2022-12-17T09:42:45.499Z,94645.88
2022-12-17T09:45:31.969Z,94644.63
2022-12-17T09:48:12.121Z,94653.56
2022-12-17T09:50:33.838Z,94654.91
2022-12-17T09:52:55.582Z,94643.03
2022-12-17T09:55:15.746Z,94609.63
2022-12-17T09:57:38.777Z,94624.00
2022-12-17T10:00:09.529Z,94644.25
2022-12-17T10:02:37.045Z,94600.06
2022-12-17T10:05:00.872Z,94591.81
2022-12-17T10:07:21.653Z,94595.44
2022-12-17T10:09:42.281Z,94581.91
2022-12-17T10:12:02.789Z,94581.91
2022-12-17T10:14:39.848Z,94619.38
2022-12-17T10:17:11.670Z,94648.31
2022-12-17T10:19:38.977Z,94673.16
2022-12-17T10:22:00.547Z,94683.44
2022-12-17T10:24:28.073Z,94676.59
2022-12-17T10:26:51.327Z,94675.59
2022-12-17T10:29:21.009Z,94670.53
2022-12-17T10:31:42.472Z,94670.91
2022-12-17T10:34:03.637Z,94666.88
2022-12-17T10:36:38.220Z,94664.13
2022-12-17T10:38:59.467Z,94645.13
2022-12-17T10:41:22.539Z,94648.56
2022-12-17T10:43:51.173Z,94644.97
2022-12-17T10:46:15.831Z,94639.53
2022-12-17T10:48:40.197Z,94633.16
2022-12-17T10:51:00.621Z,94622.97
2022-12-17T10:53:22.616Z,94622.00
2022-12-17T10:55:47.645Z,94609.19
2022-12-17T10:58:08.856Z,94584.88
2022-12-17T11:00:50.374Z,94578.44
2022-12-17T11:03:11.322Z,94566.75
2022-12-17T11:06:01.929Z,94562.06
2022-12-17T11:08:22.312Z,94524.72
2022-12-17T11:10:44.545Z,94534.31
2022-12-17T11:13:16.297Z,94545.22
2022-12-17T11:15:46.862Z,94533.31
2022-12-17T11:18:11.333Z,94541.13
2022-12-17T11:21:18.560Z,94534.81
2022-12-17T11:23:39.721Z,94553.31
2022-12-17T11:26:13.310Z,94569.66
2022-12-17T11:28:40.784Z,94589.53
2022-12-17T11:31:08.384Z,94572.94
2022-12-17T11:33:45.400Z,94577.03
2022-12-17T11:36:47.641Z,94601.34
2022-12-17T11:39:21.414Z,94622.38
2022-12-17T11:42:00.165Z,94611.28
2022-12-17T11:44:26.848Z,94621.81
2022-12-17T11:47:12.912Z,94626.91
2022-12-17T11:49:45.699Z,94629.00
2022-12-17T11:52:08.697Z,94629.09
2022-12-17T11:54:34.607Z,94622.75
2022-12-17T11:57:01.119Z,94611.34
2022-12-17T11:59:30.451Z,94610.81
2022-12-17T12:02:01.738Z,94617.19
2022-12-17T12:04:51.670Z,94609.47
2022-12-17T12:07:30.168Z,94614.47
2022-12-17T12:09:53.483Z,94638.88
2022-12-17T12:12:44.618Z,94659.31
2022-12-17T12:15:37.113Z,94645.09
2022-12-17T12:18:15.317Z,94649.66
2022-12-17T12:20:35.052Z,94642.53
2022-12-17T12:23:19.202Z,94645.16
2022-12-17T12:26:20.802Z,94641.50
2022-12-17T12:28:57.046Z,94642.28
2022-12-17T12:31:35.742Z,94638.91
2022-12-17T12:34:02.677Z,94639.63
2022-12-17T12:36:25.326Z,94652.22
2022-12-17T12:38:59.087Z,94638.28
2022-12-17T12:41:53.649Z,94622.00
2022-12-17T12:44:18.447Z,94626.19
2022-12-17T12:47:13.790Z,94631.28
2022-12-17T12:49:48.003Z,94628.00
2022-12-17T12:52:09.577Z,94625.66
2022-12-17T12:55:05.082Z,94620.91
2022-12-17T12:57:43.602Z,94644.69
2022-12-17T13:00:08.054Z,94646.84
2022-12-17T13:02:43.650Z,94642.06
2022-12-17T13:05:04.242Z,94644.47
2022-12-17T13:07:05.987Z,94651.91
2022-12-17T13:09:16.989Z,94646.44
2022-12-17T13:11:37.929Z,94641.09
2022-12-17T13:13:56.140Z,94638.84
2022-12-17T13:16:22.523Z,94636.47
2022-12-17T13:18:32.644Z,94622.25
2022-12-17T13:20:34.913Z,94636.81
2022-12-17T13:22:36.569Z,94643.00
2022-12-17T13:24:38.389Z,94623.41
2022-12-17T13:26:39.929Z,94637.50
2022-12-17T13:28:41.956Z,94659.78
2022-12-17T13:30:43.565Z,94660.53
2022-12-17T13:32:58.344Z,94662.78
2022-12-17T13:35:18.035Z,94651.84
2022-12-17T13:37:42.734Z,94653.94
2022-12-17T13:40:00.676Z,94652.66
2022-12-17T13:42:02.810Z,94658.69
2022-12-17T13:44:21.596Z,94675.78
2022-12-17T13:46:24.486Z,94665.72
2022-12-17T13:48:29.809Z,94667.22
2022-12-17T13:50:34.428Z,94674.25
2022-12-17T13:52:37.085Z,94667.34
2022-12-17T13:54:39.001Z,94664.06
2022-12-17T13:56:40.588Z,94662.72
2022-12-17T13:58:43.135Z,94667.63
2022-12-17T14:00:45.025Z,94669.38
2022-12-17T14:02:46.898Z,94655.72
2022-12-17T14:04:53.546Z,94659.53
2022-12-17T14:07:00.078Z,94686.63
2022-12-17T14:09:02.437Z,94681.53
2022-12-17T14:11:23.273Z,94674.63
2022-12-17T14:13:24.921Z,94679.00
2022-12-17T14:15:28.626Z,94691.50
2022-12-17T14:17:47.344Z,94704.13
2022-12-17T14:19:54.368Z,94708.88
2022-12-17T14:21:56.403Z,94696.56
2022-12-17T14:23:58.231Z,94694.13
2022-12-17T14:26:00.107Z,94701.66
2022-12-17T14:28:04.866Z,94701.97
2022-12-17T14:30:22.315Z,94703.84
2022-12-17T14:32:27.056Z,94707.63
2022-12-17T14:34:30.029Z,94705.47
2022-12-17T14:36:32.335Z,94703.72
2022-12-17T14:38:38.722Z,94703.72
2022-12-17T14:40:41.219Z,94704.38
2022-12-17T14:42:42.990Z,94708.94
2022-12-17T14:45:13.843Z,94712.25
2022-12-17T14:47:28.832Z,94724.09
2022-12-17T14:49:30.479Z,94725.06
2022-12-17T14:51:36.130Z,94721.16
2022-12-17T14:53:37.801Z,94736.72
2022-12-17T14:55:55.225Z,94735.56
2022-12-17T14:58:12.643Z,94728.53
2022-12-17T15:00:14.922Z,94723.09
2022-12-17T15:02:21.146Z,94729.00
2022-12-17T15:04:23.585Z,94734.25
2022-12-17T15:06:30.131Z,94733.28
2022-12-17T15:08:37.264Z,94729.00
2022-12-17T15:10:39.043Z,94740.81
2022-12-17T15:12:48.814Z,94729.38
2022-12-17T15:14:50.716Z,94749.25
2022-12-17T15:16:52.866Z,94751.91
2022-12-17T15:18:54.494Z,94743.69
2022-12-17T15:20:56.107Z,94756.34
2022-12-17T15:22:57.905Z,94750.44
2022-12-17T15:24:59.542Z,94765.19
2022-12-17T15:27:01.197Z,94759.63
2022-12-17T15:29:02.819Z,94757.97
2022-12-17T15:31:04.549Z,94768.97
2022-12-17T15:33:07.743Z,94760.13
2022-12-17T15:35:10.577Z,94766.84
2022-12-17T15:37:12.302Z,94768.31
2022-12-17T15:39:13.953Z,94766.34
2022-12-17T15:41:34.034Z,94765.50
2022-12-17T15:43:35.693Z,94772.25
2022-12-17T15:45:41.278Z,94769.78
2022-12-17T15:47:42.951Z,94769.13
2022-12-17T15:49:45.398Z,94770.63
2022-12-17T15:51:47.102Z,94777.84
2022-12-17T15:53:48.782Z,94773.25
2022-12-17T15:55:50.384Z,94774.72
2022-12-17T15:57:51.977Z,94782.44
2022-12-17T15:59:53.590Z,94777.66
2022-12-17T16:01:55.317Z,94788.50
2022-12-17T16:03:58.166Z,94791.13
2022-12-17T16:06:01.604Z,94795.56
2022-12-17T16:08:03.399Z,94795.38
2022-12-17T16:10:08.234Z,94800.31
2022-12-17T16:12:09.924Z,94801.28
2022-12-17T16:14:11.503Z,94809.16
2022-12-17T16:16:13.279Z,94808.19
2022-12-17T16:18:16.821Z,94809.84
2022-12-17T16:20:18.459Z,94810.50
2022-12-17T16:22:20.146Z,94810.34
2022-12-17T16:24:21.794Z,94814.94
2022-12-17T16:26:23.604Z,94817.22
2022-12-17T16:28:26.503Z,94831.50
2022-12-17T16:30:28.095Z,94822.13
2022-12-17T16:32:35.989Z,94831.28
2022-12-17T16:34:38.272Z,94831.47
2022-12-17T16:36:39.919Z,94836.88
2022-12-17T16:38:50.116Z,94836.38
2022-12-17T16:40:57.976Z,94837.03
2022-12-17T16:42:59.596Z,94832.13
2022-12-17T16:45:01.259Z,94836.38
2022-12-17T16:47:03.232Z,94834.06
2022-12-17T16:49:11.378Z,94834.06
2022-12-17T16:51:21.114Z,94828.16
2022-12-17T16:53:27.601Z,94839.63
2022-12-17T16:55:29.410Z,94840.25
2022-12-17T16:57:31.078Z,94846.66
2022-12-17T16:59:32.636Z,94850.53
2022-12-17T17:01:34.859Z,94854.16
2022-12-17T17:03:42.641Z,94851.69
2022-12-17T17:05:44.252Z,94863.00
2022-12-17T17:07:45.898Z,94867.09
2022-12-17T17:09:47.572Z,94867.28
2022-12-17T17:11:51.986Z,94866.47
2022-12-17T17:13:54.573Z,94863.66
2022-12-17T17:15:56.384Z,94863.34
2022-12-17T17:18:01.616Z,94872.69
2022-12-17T17:20:04.053Z,94868.78
2022-12-17T17:22:05.821Z,94877.97
2022-12-17T17:24:18.423Z,94885.50
2022-12-17T17:26:22.467Z,94885.66
2022-12-17T17:28:24.182Z,94890.25
2022-12-17T17:30:25.987Z,94880.09
2022-12-17T17:32:27.768Z,94882.38
2022-12-17T17:34:29.363Z,94890.75
2022-12-17T17:36:31.308Z,94888.13
2022-12-17T17:38:34.923Z,94897.97
2022-12-17T17:40:36.624Z,94897.00
2022-12-17T17:42:38.306Z,94900.38
2022-12-17T17:44:39.947Z,94900.81
2022-12-17T17:46:41.991Z,94904.44
2022-12-17T17:48:45.092Z,94907.19
2022-12-17T17:51:09.791Z,94912.78
2022-12-17T17:53:11.279Z,94916.72
2022-12-17T17:55:13.115Z,94919.03
2022-12-17T17:57:14.887Z,94919.03
2022-12-17T17:59:19.438Z,94923.78
2022-12-17T18:01:24.410Z,94918.91
2022-12-17T18:03:29.447Z,94925.94
2022-12-17T18:05:31.225Z,94930.22
2022-12-17T18:07:32.798Z,94939.88
2022-12-17T18:09:34.471Z,94947.75
2022-12-17T18:11:38.044Z,94934.75
2022-12-17T18:13:55.587Z,94955.63
2022-12-17T18:16:02.039Z,94951.56
2022-12-17T18:18:03.712Z,94964.16
2022-12-17T18:20:05.961Z,94963.53
2022-12-17T18:22:07.561Z,94968.25
2022-12-17T18:24:15.242Z,94979.91
2022-12-17T18:26:19.590Z,94971.03
2022-12-17T18:28:21.240Z,94984.06
2022-12-17T18:30:22.911Z,94986.81
2022-12-17T18:32:24.645Z,94986.91
2022-12-17T18:34:29.545Z,94988.91
2022-12-17T18:36:34.117Z,94985.31
2022-12-17T18:38:36.592Z,94995.50
2022-12-17T18:40:38.486Z,94999.44
2022-12-17T18:42:58.520Z,95002.06
2022-12-17T18:45:00.201Z,95003.72
2022-12-17T18:47:01.920Z,95014.34
2022-12-17T18:49:06.956Z,95009.91
2022-12-17T18:51:08.614Z,95025.59
2022-12-17T18:53:10.240Z,95016.31
2022-12-17T18:55:11.937Z,95017.91
2022-12-17T18:57:13.703Z,95027.69
2022-12-17T18:59:17.490Z,95023.28
2022-12-17T19:01:30.878Z,95031.81
2022-12-17T19:03:33.190Z,95030.13
2022-12-17T19:05:34.833Z,95036.22
2022-12-17T19:07:36.452Z,95036.50
2022-12-17T19:09:39.652Z,95035.81
2022-12-17T19:11:43.682Z,95041.63
2022-12-17T19:13:46.323Z,95047.97
2022-12-17T19:15:47.962Z,95053.34
2022-12-17T19:17:51.024Z,95063.47
2022-12-17T19:19:52.708Z,95065.41
2022-12-17T19:21:55.845Z,95057.28
2022-12-17T19:23:59.309Z,95066.91
2022-12-17T19:26:08.930Z,95063.91
2022-12-17T19:28:10.529Z,95063.38
2022-12-17T19:30:12.418Z,95069.28
2022-12-17T19:32:14.243Z,95076.31
2022-12-17T19:34:17.169Z,95074.53
2022-12-17T19:36:23.877Z,95077.88
2022-12-17T19:38:29.826Z,95081.09
2022-12-17T19:40:31.437Z,95078.47
2022-12-17T19:42:37.366Z,95077.72
2022-12-17T19:44:39.446Z,95076.09
2022-12-17T19:46:41.544Z,95078.69
2022-12-17T19:48:48.410Z,95074.72
2022-12-17T19:51:00.004Z,95085.50
2022-12-17T19:53:01.628Z,95090.97
2022-12-17T19:55:03.425Z,95088.19
2022-12-17T19:57:05.103Z,95088.34
2022-12-17T19:59:08.185Z,95097.34
2022-12-17T20:01:12.406Z,95099.28
2022-12-17T20:03:14.247Z,95103.13
2022-12-17T20:05:16.209Z,95103.66
2022-12-17T20:07:17.841Z,95113.31
2022-12-17T20:09:19.684Z,95114.13
2022-12-17T20:11:34.192Z,95116.16
2022-12-17T20:13:36.104Z,95118.50
2022-12-17T20:15:38.102Z,95120.13
2022-12-17T20:17:39.685Z,95121.78
2022-12-17T20:19:42.225Z,95126.06
2022-12-17T20:21:44.021Z,95126.28
2022-12-17T20:23:51.894Z,95134.97
2022-12-17T20:26:03.563Z,95134.88
2022-12-17T20:28:05.378Z,95143.25
2022-12-17T20:30:07.426Z,95134.03
2022-12-17T20:32:09.165Z,95148.13
2022-12-17T20:34:13.239Z,95149.63
2022-12-17T20:36:16.933Z,95159.91
2022-12-17T20:38:18.567Z,95153.88
2022-12-17T20:40:20.294Z,95160.91
2022-12-17T20:42:21.908Z,95161.88
2022-12-17T20:44:23.676Z,95167.94
2022-12-17T20:46:25.730Z,95169.72
2022-12-17T20:48:27.414Z,95172.63
2022-12-17T20:50:29.016Z,95172.63
2022-12-17T20:52:30.787Z,95176.91
2022-12-17T20:54:32.546Z,95175.66
2022-12-17T20:56:35.140Z,95180.59
2022-12-17T20:58:38.590Z,95180.72
2022-12-17T21:00:40.702Z,95194.50
2022-12-17T21:02:43.253Z,95185.28
2022-12-17T21:04:45.018Z,95199.59
2022-12-17T21:06:47.526Z,95194.66
2022-12-17T21:08:51.125Z,95199.91
2022-12-17T21:10:56.471Z,95201.00
2022-12-17T21:13:36.424Z,95210.91
2022-12-17T21:15:38.010Z,95203.19
2022-12-17T21:17:39.614Z,95204.69
2022-12-17T21:19:41.350Z,95201.41
2022-12-17T21:21:43.000Z,95207.06
2022-12-17T21:23:45.808Z,95207.75
2022-12-17T21:25:47.394Z,95217.25
2022-12-17T21:27:49.038Z,95217.25
2022-12-17T21:29:50.706Z,95221.66
2022-12-17T21:31:52.730Z,95210.13
2022-12-17T21:33:56.609Z,95218.09
2022-12-17T21:36:05.870Z,95217.81
2022-12-17T21:38:10.891Z,95224.03
2022-12-17T21:40:12.998Z,95224.72
2022-12-17T21:42:32.923Z,95235.97
2022-12-17T21:44:35.110Z,95230.34
2022-12-17T21:46:37.098Z,95233.78
2022-12-17T21:48:42.169Z,95236.53
2022-12-17T21:50:45.561Z,95240.66
2022-12-17T21:52:47.737Z,95242.19
2022-12-17T21:54:49.296Z,95243.28
2022-12-17T21:56:51.199Z,95251.94
2022-12-17T21:58:57.361Z,95254.00
2022-12-17T22:00:59.087Z,95245.34
2022-12-17T22:03:01.294Z,95245.09
2022-12-17T22:05:03.120Z,95244.94
2022-12-17T22:07:06.861Z,95242.88
2022-12-17T22:09:14.842Z,95253.31
2022-12-17T22:11:26.381Z,95243.97
2022-12-17T22:13:46.572Z,95249.47
2022-12-17T22:15:50.344Z,95252.50
2022-12-17T22:17:53.329Z,95253.19
2022-12-17T22:19:55.711Z,95253.47
2022-12-17T22:21:57.882Z,95254.03
2022-12-17T22:23:59.847Z,95259.13
2022-12-17T22:26:01.488Z,95262.44
2022-12-17T22:28:03.210Z,95262.41
2022-12-17T22:30:30.088Z,95265.28
2022-12-17T22:32:50.228Z,95265.38
2022-12-17T22:35:58.260Z,95264.25
2022-12-17T22:40:06.162Z,95263.47
2022-12-17T22:43:36.847Z,95267.84
2022-12-17T22:44:43.342Z,95268.03
2022-12-17T22:44:53.334Z,95276.59
2022-12-17T22:46:55.666Z,95281.25
2022-12-17T22:48:58.372Z,95278.78
2022-12-17T22:51:10.676Z,95278.41
2022-12-17T22:53:17.309Z,95286.72
2022-12-17T22:55:19.533Z,95287.41
2022-12-17T22:57:36.797Z,95286.75
2022-12-17T22:59:39.593Z,95289.53
2022-12-17T23:01:41.904Z,95293.91
2022-12-17T23:03:45.149Z,95297.59
2022-12-17T23:05:47.065Z,95289.19
2022-12-17T23:07:49.792Z,95301.50
2022-12-17T23:09:51.379Z,95297.44
2022-12-17T23:11:52.999Z,95297.50
2022-12-17T23:13:54.794Z,95305.31
2022-12-17T23:15:56.419Z,95308.47
2022-12-17T23:18:00.427Z,95312.44
2022-12-17T23:20:02.118Z,95309.56
2022-12-17T23:22:03.752Z,95320.03
2022-12-17T23:24:06.016Z,95326.72
2022-12-17T23:26:22.584Z,95332.72
2022-12-17T23:28:24.260Z,95334.75
2022-12-17T23:30:25.964Z,95339.13
2022-12-17T23:32:27.511Z,95344.00
2022-12-17T23:34:29.133Z,95339.94
2022-12-17T23:36:30.997Z,95343.66
2022-12-17T23:38:32.648Z,95344.00
2022-12-17T23:40:34.380Z,95349.81
2022-12-17T23:42:35.963Z,95358.81
2022-12-17T23:44:37.530Z,95367.47
2022-12-17T23:46:39.195Z,95366.63
2022-12-17T23:48:45.573Z,95370.66
2022-12-17T23:50:47.503Z,95366.97
2022-12-17T23:52:49.177Z,95373.84
2022-12-17T23:54:50.935Z,95381.66
2022-12-17T23:56:52.529Z,95381.78
2022-12-17T23:58:55.937Z,95382.25
